createdAt,value
2019-05-22T00:04:15.539Z,47.78
2019-05-22T00:06:46.006Z,43.58
2019-05-22T00:09:36.523Z,50.70
2019-05-22T00:12:09.415Z,50.00
2019-05-22T00:14:40.754Z,51.68
2019-05-22T00:17:11.867Z,50.75
2019-05-22T00:19:42.409Z,50.23
2019-05-22T00:22:13.564Z,48.83
2019-05-22T00:24:46.253Z,51.10
2019-05-22T00:27:18.176Z,47.53
2019-05-22T00:29:51.196Z,49.60
2019-05-22T00:32:21.195Z,50.12
2019-05-22T00:37:20.587Z,52.38
2019-05-22T00:39:51.711Z,49.88
2019-05-22T00:44:53.583Z,53.17
2019-05-22T00:47:24.966Z,49.83
2019-05-22T00:49:58.439Z,52.88
2019-05-22T00:52:31.384Z,50.03
2019-05-22T00:55:14.713Z,53.55
2019-05-22T00:57:45.936Z,47.78
2019-05-22T01:00:24.371Z,49.63
2019-05-22T01:02:55.610Z,53.38
2019-05-22T01:05:27.791Z,51.10
2019-05-22T01:07:58.231Z,50.98
2019-05-22T01:10:29.768Z,54.98
2019-05-22T01:13:03.362Z,53.02
2019-05-22T01:15:32.943Z,56.70
2019-05-22T01:18:07.678Z,51.05
2019-05-22T01:20:40.772Z,50.60
2019-05-22T01:23:13.179Z,55.55
2019-05-22T01:25:43.066Z,50.15
2019-05-22T01:28:14.240Z,48.80
2019-05-22T01:30:46.395Z,55.67
2019-05-22T01:33:26.527Z,54.70
2019-05-22T01:36:03.861Z,56.68
2019-05-22T01:38:38.283Z,54.03
2019-05-22T01:41:26.758Z,53.58
2019-05-22T01:43:59.559Z,51.15
2019-05-22T01:46:32.753Z,53.78
2019-05-22T01:49:04.392Z,54.27
2019-05-22T01:51:34.255Z,53.52
2019-05-22T01:54:04.238Z,59.65
2019-05-22T01:56:35.909Z,55.12
2019-05-22T01:59:05.576Z,53.60
2019-05-22T02:01:37.663Z,56.98
2019-05-22T02:04:07.937Z,54.55
2019-05-22T02:06:37.744Z,54.40
2019-05-22T02:09:28.867Z,54.33
2019-05-22T02:12:17.450Z,57.30
2019-05-22T02:14:50.027Z,57.60
2019-05-22T02:17:23.995Z,57.20
2019-05-22T02:19:54.710Z,57.48
2019-05-22T02:22:26.896Z,58.05
2019-05-22T02:24:56.680Z,58.13
2019-05-22T02:27:26.447Z,56.20
2019-05-22T02:29:56.221Z,58.30
2019-05-22T02:32:27.747Z,61.35
2019-05-22T02:34:57.718Z,57.48
2019-05-22T02:39:56.638Z,49.58
2019-05-22T02:42:29.856Z,55.00
2019-05-22T02:45:00.925Z,56.42
2019-05-22T02:47:31.777Z,58.28
2019-05-22T02:52:31.053Z,50.60
2019-05-22T02:55:02.335Z,58.83
2019-05-22T02:57:32.523Z,57.40
2019-05-22T03:00:03.146Z,51.83
2019-05-22T03:02:37.829Z,62.23
2019-05-22T03:05:10.339Z,59.20
2019-05-22T03:07:42.137Z,61.50
2019-05-22T03:10:14.503Z,58.13
2019-05-22T03:12:45.601Z,58.92
2019-05-22T03:15:19.099Z,58.65
2019-05-22T03:17:51.354Z,57.38
2019-05-22T03:20:23.410Z,58.02
2019-05-22T03:22:56.925Z,55.58
2019-05-22T03:25:28.172Z,56.90
2019-05-22T03:27:57.655Z,59.48
2019-05-22T03:30:33.861Z,57.88
2019-05-22T03:33:06.039Z,59.20
2019-05-22T03:35:42.510Z,58.10
2019-05-22T03:38:13.667Z,56.85
2019-05-22T03:40:44.001Z,53.50
2019-05-22T03:43:28.231Z,58.80
2019-05-22T03:46:01.429Z,55.17
2019-05-22T03:48:36.475Z,55.50
2019-05-22T03:51:12.520Z,54.70
2019-05-22T03:53:44.003Z,53.00
2019-05-22T03:56:15.328Z,55.52
2019-05-22T03:58:46.092Z,55.43
2019-05-22T04:01:15.729Z,52.30
2019-05-22T04:03:45.865Z,54.00
2019-05-22T04:06:17.688Z,52.27
2019-05-22T04:08:47.613Z,50.03
2019-05-22T04:13:49.086Z,49.83
2019-05-22T04:16:23.067Z,53.90
2019-05-22T04:18:53.519Z,46.35
2019-05-22T04:21:23.162Z,52.38
2019-05-22T04:23:53.084Z,53.95
2019-05-22T04:26:22.881Z,53.65
2019-05-22T04:28:55.072Z,54.13
2019-05-22T04:31:50.105Z,51.20
2019-05-22T04:34:20.922Z,49.05
2019-05-22T04:36:51.016Z,50.58
2019-05-22T04:39:22.104Z,51.13
2019-05-22T04:41:52.818Z,51.08
2019-05-22T04:44:22.411Z,53.13
2019-05-22T04:46:52.154Z,52.83
2019-05-22T04:49:21.774Z,49.18
2019-05-22T04:51:51.443Z,48.58
2019-05-22T04:54:21.097Z,49.00
2019-05-22T04:56:51.649Z,45.50
2019-05-22T04:59:21.160Z,47.13
2019-05-22T05:01:51.074Z,48.85
2019-05-22T05:04:21.199Z,47.43
2019-05-22T05:06:51.316Z,45.52
2019-05-22T05:09:22.268Z,46.42
2019-05-22T05:11:52.483Z,46.60
2019-05-22T05:14:22.069Z,45.48
2019-05-22T05:16:52.722Z,44.35
2019-05-22T05:19:22.693Z,43.92
2019-05-22T05:24:21.028Z,45.03
2019-05-22T05:26:52.271Z,45.00
2019-05-22T05:29:27.306Z,46.37
2019-05-22T05:31:57.997Z,47.17
2019-05-22T05:34:33.433Z,45.92
2019-05-22T05:37:05.695Z,45.83
2019-05-22T05:39:40.186Z,46.35
2019-05-22T05:42:09.676Z,42.98
2019-05-22T05:44:39.203Z,45.25
2019-05-22T05:47:09.344Z,43.95
2019-05-22T05:49:39.387Z,43.05
2019-05-22T05:52:10.576Z,41.90
2019-05-22T05:54:41.848Z,40.45
2019-05-22T05:57:35.753Z,42.25
2019-05-22T06:00:24.481Z,39.65
2019-05-22T06:02:57.039Z,42.40
2019-05-22T06:05:27.554Z,42.53
2019-05-22T06:07:57.804Z,41.70
2019-05-22T06:10:30.384Z,41.13
2019-05-22T06:13:00.576Z,41.75
2019-05-22T06:15:47.465Z,41.98
2019-05-22T06:18:37.523Z,42.13
2019-05-22T06:21:08.739Z,43.05
2019-05-22T06:23:42.263Z,40.33
2019-05-22T06:26:15.531Z,42.17
2019-05-22T06:28:45.477Z,42.33
2019-05-22T06:33:45.582Z,40.73
2019-05-22T06:38:55.038Z,39.67
2019-05-22T06:41:27.339Z,40.63
2019-05-22T06:44:35.521Z,40.95
2019-05-22T06:47:06.998Z,40.55
2019-05-22T06:49:41.404Z,43.35
2019-05-22T06:52:11.310Z,43.02
2019-05-22T06:57:12.365Z,43.60
2019-05-22T06:59:43.681Z,43.70
2019-05-22T07:02:15.705Z,43.68
2019-05-22T07:04:46.362Z,45.83
2019-05-22T07:07:17.363Z,43.60
2019-05-22T07:09:46.967Z,44.50
2019-05-22T07:12:19.889Z,43.87
2019-05-22T07:15:04.506Z,43.42
2019-05-22T07:17:36.293Z,45.35
2019-05-22T07:20:08.037Z,46.58
2019-05-22T07:22:37.680Z,45.35
2019-05-22T07:25:09.604Z,46.75
2019-05-22T07:27:39.923Z,47.62
2019-05-22T07:30:10.168Z,46.88
2019-05-22T07:32:40.198Z,47.53
2019-05-22T07:37:42.042Z,42.73
2019-05-22T07:40:12.842Z,46.63
2019-05-22T07:42:42.773Z,46.42
2019-05-22T07:45:12.600Z,48.45
2019-05-22T07:47:42.684Z,47.88
2019-05-22T07:50:13.373Z,48.60
2019-05-22T07:52:43.836Z,47.13
2019-05-22T07:55:15.786Z,47.78
2019-05-22T07:57:52.484Z,47.75
2019-05-22T08:00:22.108Z,46.13
2019-05-22T08:02:52.180Z,46.98
2019-05-22T08:05:23.469Z,41.73
2019-05-22T08:07:53.649Z,46.35
2019-05-22T08:10:23.850Z,45.48
2019-05-22T08:12:53.656Z,44.50
2019-05-22T08:15:24.484Z,44.38
2019-05-22T08:17:54.118Z,42.90
2019-05-22T08:20:23.872Z,46.08
2019-05-22T08:22:55.596Z,47.17
2019-05-22T08:25:26.486Z,42.30
2019-05-22T08:30:25.792Z,41.33
2019-05-22T08:32:57.541Z,42.85
2019-05-22T08:35:27.634Z,38.33
2019-05-22T08:37:57.760Z,38.80
2019-05-22T08:40:27.485Z,42.40
2019-05-22T08:42:57.201Z,42.03
2019-05-22T08:45:28.780Z,43.35
2019-05-22T08:47:58.954Z,43.58
2019-05-22T08:50:31.274Z,41.53
2019-05-22T08:53:02.440Z,41.13
2019-05-22T08:55:34.275Z,43.02
2019-05-22T08:58:04.613Z,40.17
2019-05-22T09:00:34.424Z,38.20
2019-05-22T09:03:04.392Z,39.60
2019-05-22T09:05:34.549Z,42.40
2019-05-22T09:08:05.455Z,43.25
2019-05-22T09:13:04.398Z,40.75
2019-05-22T09:15:34.993Z,40.83
2019-05-22T09:18:05.265Z,42.48
2019-05-22T09:20:48.799Z,41.40
2019-05-22T09:23:08.124Z,37.70
2019-05-22T09:25:37.589Z,38.40
2019-05-22T09:28:07.328Z,37.23
2019-05-22T09:30:37.953Z,35.17
2019-05-22T09:33:09.082Z,26.85
2019-05-22T09:35:38.655Z,31.17
2019-05-22T09:38:08.748Z,33.90
2019-05-22T09:40:38.794Z,31.50
2019-05-22T09:45:37.645Z,26.85
2019-05-22T09:53:07.945Z,24.77
2019-05-22T09:55:37.851Z,26.12
2019-05-22T09:58:08.505Z,23.90
2019-05-22T10:00:38.470Z,24.02
2019-05-22T10:03:08.745Z,19.17
2019-05-22T10:05:38.742Z,21.15
2019-05-22T10:08:08.450Z,22.55
2019-05-22T10:10:38.707Z,19.82
2019-05-22T10:13:08.716Z,21.25
2019-05-22T10:18:07.108Z,20.62
2019-05-22T10:20:36.893Z,18.80
2019-05-22T10:23:15.446Z,17.80
2019-05-22T10:25:39.075Z,16.23
2019-05-22T10:28:09.067Z,15.45
2019-05-22T10:30:38.626Z,14.80
2019-05-22T10:33:08.495Z,14.50
2019-05-22T10:35:39.680Z,13.75
2019-05-22T10:38:12.846Z,15.75
2019-05-22T10:40:43.007Z,15.23
2019-05-22T10:43:14.535Z,15.63
2019-05-22T10:48:22.950Z,12.63
2019-05-22T10:50:52.924Z,13.60
2019-05-22T10:55:53.412Z,14.45
2019-05-22T10:58:23.065Z,13.70
2019-05-22T11:00:53.648Z,13.28
2019-05-22T11:03:23.504Z,11.35
2019-05-22T11:06:06.374Z,11.25
2019-05-22T11:08:29.002Z,11.68
2019-05-22T11:10:56.921Z,11.97
2019-05-22T11:15:56.876Z,10.60
2019-05-22T11:18:26.836Z,12.50
2019-05-22T11:23:25.207Z,13.70
2019-05-22T11:25:54.775Z,13.58
2019-05-22T11:28:25.130Z,14.70
2019-05-22T11:30:55.555Z,15.05
2019-05-22T11:33:25.260Z,13.08
2019-05-22T11:35:55.868Z,15.75
2019-05-22T11:38:25.913Z,15.35
2019-05-22T11:43:24.792Z,15.88
2019-05-22T11:45:54.539Z,17.48
2019-05-22T11:48:24.849Z,16.35
2019-05-22T11:50:55.180Z,16.73
2019-05-22T11:53:25.156Z,15.68
2019-05-22T11:58:23.412Z,17.00
2019-05-22T12:00:53.352Z,17.40
2019-05-22T12:05:53.481Z,17.92
2019-05-22T12:08:24.965Z,19.48
2019-05-22T12:10:54.649Z,17.67
2019-05-22T12:13:25.404Z,18.95
2019-05-22T12:15:56.396Z,19.60
2019-05-22T12:18:27.219Z,20.02
2019-05-22T12:20:58.164Z,21.75
2019-05-22T12:23:27.820Z,22.45
2019-05-22T12:25:57.480Z,22.75
2019-05-22T12:28:27.060Z,24.37
2019-05-22T12:30:57.705Z,21.80
2019-05-22T12:33:27.404Z,24.52
2019-05-22T12:35:58.085Z,23.70
2019-05-22T12:38:28.345Z,23.95
2019-05-22T12:40:58.455Z,25.62
2019-05-22T12:43:31.762Z,28.57
2019-05-22T12:46:02.040Z,28.10
2019-05-22T12:48:32.226Z,29.25
2019-05-22T12:51:01.737Z,27.05
2019-05-22T12:53:31.847Z,28.70
2019-05-22T12:56:01.957Z,26.15
2019-05-22T12:58:33.060Z,26.42
2019-05-22T13:01:03.527Z,27.50
2019-05-22T13:03:34.953Z,31.33
2019-05-22T13:06:05.280Z,31.27
2019-05-22T13:08:35.918Z,30.70
2019-05-22T13:11:06.664Z,34.33
2019-05-22T13:13:37.127Z,29.27
2019-05-22T13:16:07.818Z,33.35
2019-05-22T13:18:39.454Z,32.33
2019-05-22T13:21:11.810Z,24.60
2019-05-22T13:23:43.769Z,28.35
2019-05-22T13:26:14.116Z,27.70
2019-05-22T13:28:46.063Z,26.97
2019-05-22T13:31:17.962Z,27.55
2019-05-22T13:33:47.545Z,26.87
2019-05-22T13:36:18.640Z,27.42
2019-05-22T13:38:48.277Z,31.77
2019-05-22T13:41:19.016Z,29.02
2019-05-22T13:43:50.711Z,27.20
2019-05-22T13:46:20.355Z,27.07
2019-05-22T13:48:50.005Z,23.87
2019-05-22T13:51:20.283Z,24.27
2019-05-22T13:53:50.017Z,22.70
2019-05-22T13:56:19.671Z,23.65
2019-05-22T13:58:50.364Z,23.67
2019-05-22T14:01:20.867Z,22.93
2019-05-22T14:03:50.982Z,22.85
2019-05-22T14:08:49.519Z,22.17
2019-05-22T14:11:19.305Z,21.30
2019-05-22T14:13:49.418Z,23.40
2019-05-22T14:16:19.867Z,22.98
2019-05-22T14:18:50.804Z,22.10
2019-05-22T14:21:21.200Z,24.92
2019-05-22T14:23:51.050Z,22.75
2019-05-22T14:26:20.687Z,22.17
2019-05-22T14:28:50.538Z,20.25
2019-05-22T14:31:20.495Z,21.00
2019-05-22T14:36:19.231Z,19.12
2019-05-22T14:38:48.944Z,19.90
2019-05-22T14:41:18.488Z,19.25
2019-05-22T14:43:48.032Z,17.80
2019-05-22T14:46:17.725Z,18.07
2019-05-22T14:48:47.359Z,16.10
2019-05-22T14:51:18.378Z,16.27
2019-05-22T14:53:49.078Z,15.38
2019-05-22T14:56:19.195Z,14.35
2019-05-22T14:58:48.827Z,14.55
2019-05-22T15:01:18.754Z,13.60
2019-05-22T15:06:17.601Z,12.65
2019-05-22T15:08:47.184Z,12.80
2019-05-22T15:11:17.515Z,12.23
2019-05-22T15:13:47.714Z,11.28
2019-05-22T15:16:17.868Z,10.78
2019-05-22T15:18:47.681Z,11.15
2019-05-22T15:21:18.476Z,11.25
2019-05-22T15:23:48.909Z,11.25
2019-05-22T15:26:18.597Z,10.85
2019-05-22T15:28:48.259Z,10.50
2019-05-22T15:31:18.123Z,10.25
2019-05-22T15:33:47.609Z,9.78
2019-05-22T15:36:19.162Z,10.63
2019-05-22T15:38:50.068Z,10.20
2019-05-22T15:41:20.201Z,10.93
2019-05-22T15:43:52.986Z,10.10
2019-05-22T15:46:22.293Z,10.40
2019-05-22T15:48:53.599Z,9.10
2019-05-22T15:51:28.119Z,10.10
2019-05-22T15:54:11.988Z,8.80
2019-05-22T15:56:42.029Z,9.60
2019-05-22T15:59:14.635Z,9.15
2019-05-22T16:01:45.664Z,9.58
2019-05-22T16:04:18.361Z,9.08
2019-05-22T16:06:49.374Z,9.48
2019-05-22T16:09:20.900Z,9.43
2019-05-22T16:11:52.615Z,9.45
2019-05-22T16:14:23.127Z,8.48
2019-05-22T16:16:53.190Z,8.70
2019-05-22T16:21:56.712Z,9.85
2019-05-22T16:24:26.343Z,9.60
2019-05-22T16:26:56.276Z,9.93
2019-05-22T16:31:56.107Z,9.85
2019-05-22T16:34:28.527Z,10.05
2019-05-22T16:36:58.435Z,9.70
2019-05-22T16:39:28.152Z,10.50
2019-05-22T16:41:57.735Z,9.93
2019-05-22T16:44:27.965Z,9.13
2019-05-22T16:46:58.867Z,8.98
2019-05-22T16:49:28.693Z,9.40
2019-05-22T16:52:01.082Z,9.30
2019-05-22T16:54:31.919Z,9.18
2019-05-22T16:57:02.912Z,9.45
2019-05-22T16:59:36.943Z,9.20
2019-05-22T17:02:06.841Z,8.33
2019-05-22T17:04:36.412Z,9.55
2019-05-22T17:07:07.870Z,8.03
2019-05-22T17:09:39.591Z,9.33
2019-05-22T17:12:11.419Z,9.63
2019-05-22T17:14:41.251Z,10.43
2019-05-22T17:17:13.948Z,9.68
2019-05-22T17:19:44.168Z,9.15
2019-05-22T17:22:15.491Z,8.33
2019-05-22T17:24:46.001Z,8.35
2019-05-22T17:27:17.199Z,8.73
2019-05-22T17:29:49.036Z,7.67
2019-05-22T17:32:34.493Z,7.62
2019-05-22T17:35:06.013Z,8.05
2019-05-22T17:37:35.764Z,7.40
2019-05-22T17:40:08.939Z,6.92
2019-05-22T17:42:39.904Z,7.83
2019-05-22T17:45:12.359Z,8.23
2019-05-22T17:47:42.790Z,7.97
2019-05-22T17:50:26.099Z,8.03
2019-05-22T17:52:45.938Z,9.10
2019-05-22T17:55:17.551Z,7.65
2019-05-22T17:57:47.941Z,7.53
2019-05-22T18:00:37.525Z,7.17
2019-05-22T18:03:07.202Z,8.10
2019-05-22T18:05:37.476Z,7.95
2019-05-22T18:08:07.437Z,7.05
2019-05-22T18:13:10.141Z,7.87
2019-05-22T18:15:40.140Z,7.42
2019-05-22T18:18:11.380Z,7.35
2019-05-22T18:20:43.750Z,8.13
2019-05-22T18:23:13.419Z,8.18
2019-05-22T18:25:45.152Z,8.13
2019-05-22T18:28:15.716Z,7.80
2019-05-22T18:30:47.565Z,8.65
2019-05-22T18:33:17.354Z,7.65
2019-05-22T18:35:47.464Z,7.55
2019-05-22T18:38:17.204Z,7.67
2019-05-22T18:40:46.879Z,7.05
2019-05-22T18:43:18.862Z,6.97
2019-05-22T18:45:48.212Z,7.42
2019-05-22T18:48:33.221Z,6.33
2019-05-22T18:51:03.231Z,7.05
2019-05-22T18:53:34.725Z,7.12
2019-05-22T18:56:06.624Z,7.47
2019-05-22T18:58:36.754Z,8.10
2019-05-22T19:01:07.369Z,6.65
2019-05-22T19:03:36.933Z,7.70
2019-05-22T19:06:06.608Z,8.03
2019-05-22T19:08:36.453Z,7.85
2019-05-22T19:11:06.562Z,8.28
2019-05-22T19:13:37.224Z,7.30
2019-05-22T19:16:06.868Z,7.60
2019-05-22T19:18:36.587Z,9.73
2019-05-22T19:21:06.255Z,8.15
2019-05-22T19:23:35.878Z,8.08
2019-05-22T19:26:06.088Z,8.78
2019-05-22T19:28:43.498Z,8.85
2019-05-22T19:31:07.643Z,8.30
2019-05-22T19:33:37.291Z,8.88
2019-05-22T19:36:08.241Z,9.50
2019-05-22T19:41:07.261Z,9.10
2019-05-22T19:43:36.861Z,9.08
2019-05-22T19:46:06.736Z,9.60
2019-05-22T19:48:36.468Z,10.13
2019-05-22T19:51:06.516Z,10.25
2019-05-22T19:53:36.613Z,9.73
2019-05-22T20:01:05.842Z,10.45
2019-05-22T20:03:36.110Z,10.88
2019-05-22T20:06:06.443Z,11.55
2019-05-22T20:08:37.177Z,11.53
2019-05-22T20:11:06.751Z,10.95
2019-05-22T20:13:37.517Z,9.93
2019-05-22T20:16:07.035Z,11.45
2019-05-22T20:18:36.696Z,10.45
2019-05-22T20:21:06.279Z,10.48
2019-05-22T20:23:37.061Z,11.30
2019-05-22T20:26:07.371Z,11.20
2019-05-22T20:28:38.950Z,12.43
2019-05-22T20:31:09.516Z,12.58
2019-05-22T20:33:39.145Z,12.55
2019-05-22T20:36:09.511Z,12.88
2019-05-22T20:38:39.778Z,13.30
2019-05-22T20:41:09.808Z,12.93
2019-05-22T20:46:09.773Z,13.53
2019-05-22T20:48:40.684Z,14.43
2019-05-22T20:51:12.873Z,13.32
2019-05-22T20:53:53.732Z,14.07
2019-05-22T20:56:14.608Z,14.38
2019-05-22T20:58:44.727Z,13.75
2019-05-22T21:01:14.864Z,14.63
2019-05-22T21:03:44.364Z,12.80
2019-05-22T21:06:15.512Z,14.68
2019-05-22T21:08:46.558Z,14.47
2019-05-22T21:11:17.690Z,13.68
2019-05-22T21:13:53.237Z,13.32
2019-05-22T21:16:23.474Z,15.13
2019-05-22T21:18:54.682Z,14.85
2019-05-22T21:21:25.330Z,15.60
2019-05-22T21:24:09.373Z,15.60
2019-05-22T21:26:28.843Z,17.17
2019-05-22T21:28:59.064Z,17.05
2019-05-22T21:31:30.478Z,16.23
2019-05-22T21:34:00.444Z,17.02
2019-05-22T21:38:59.258Z,14.70
2019-05-22T21:41:30.058Z,17.07
2019-05-22T21:43:59.797Z,15.85
2019-05-22T21:46:30.096Z,16.77
2019-05-22T21:49:00.109Z,16.40
2019-05-22T21:54:00.133Z,15.88
2019-05-22T21:56:30.702Z,15.03
2019-05-22T21:59:00.882Z,16.77
2019-05-22T22:01:34.117Z,17.62
2019-05-22T22:04:11.955Z,16.73
2019-05-22T22:06:42.234Z,16.10
2019-05-22T22:09:13.374Z,16.77
2019-05-22T22:11:43.845Z,18.17
2019-05-22T22:14:14.971Z,17.70
2019-05-22T22:16:45.602Z,17.45
2019-05-22T22:19:17.084Z,16.52
2019-05-22T22:21:47.824Z,17.17
2019-05-22T22:24:17.435Z,16.12
2019-05-22T22:26:48.178Z,17.67
2019-05-22T22:29:17.754Z,16.42
2019-05-22T22:31:48.849Z,15.65
2019-05-22T22:34:22.166Z,16.12
2019-05-22T22:36:52.472Z,17.32
2019-05-22T22:39:23.411Z,16.50
2019-05-22T22:41:55.801Z,16.05
2019-05-22T22:44:26.278Z,16.55
2019-05-22T22:47:00.563Z,18.23
2019-05-22T22:49:30.195Z,16.52
2019-05-22T22:52:01.120Z,16.95
2019-05-22T22:54:31.701Z,16.50
2019-05-22T22:57:01.286Z,17.70
2019-05-22T22:59:31.179Z,17.25
2019-05-22T23:04:32.076Z,16.27
2019-05-22T23:07:05.872Z,16.35
2019-05-22T23:09:38.622Z,16.35
2019-05-22T23:12:09.893Z,17.45
2019-05-22T23:14:42.475Z,18.52
2019-05-22T23:17:12.433Z,16.93
2019-05-22T23:22:20.498Z,16.20
2019-05-22T23:24:53.274Z,15.83
2019-05-22T23:27:23.956Z,18.23
2019-05-22T23:29:54.135Z,17.80
2019-05-22T23:32:24.283Z,17.98
2019-05-22T23:34:55.490Z,18.27
2019-05-22T23:37:26.464Z,19.48
2019-05-22T23:39:57.066Z,17.57
2019-05-22T23:42:30.142Z,19.37
2019-05-22T23:45:02.945Z,19.98
2019-05-22T23:47:32.715Z,18.25
2019-05-22T23:50:02.843Z,20.37
2019-05-22T23:52:33.664Z,18.42
2019-05-22T23:55:04.526Z,18.92
2019-05-22T23:57:35.229Z,20.30
